Columbus, IN (47201)

4:28 AM EST on January 20, 2017 (GMT -0500)
Jackson St. | | Change Station

Elev 627 ft 39.21 °N, 85.92 °W | Updated 3 seconds ago

Rain
Rain
45.9 °F
Feels Like 46 °F
N
0.0
Wind Variable Wind from WNW
Gusts 0.0 mph

Today
High -- | Low -- °F
--% Chance of Precip.
Yesterday
High -- | Low -- °F
Precip. -- in
Pressure 29.59 in
Visibility 4.0 miles
Clouds Few 500 ft
Mostly Cloudy 1000 ft
Overcast 1600 ft
Windchill 46 °F
Dew Point 45 °F
Humidity 97%
Rainfall 0.48 in
Snow Depth Not available.
7:59 AM 5:51 PM
Last Quarter, 46% visible
SPECI KGEZ 200918Z AUTO 00000KT 4SM -RA BR FEW005 BKN010 OVC016 08/07 A2959 RMK AO2 P0005 T00780067
Pressure 29.59 in
Visibility 4.0 miles
Clouds Few 500 ft
Mostly Cloudy 1000 ft
Overcast 1600 ft
Windchill 46 °F
Dew Point 45 °F
Humidity 97%
Rainfall 0.48 in
Snow Depth Not available.
7:59 AM 5:51 PM
Last Quarter, 46% visible
SPECI KGEZ 200918Z AUTO 00000KT 4SM -RA BR FEW005 BKN010 OVC016 08/07 A2959 RMK AO2 P0005 T00780067

Get Your Daily Forecast Email!

Thanks for signing up!

Be on the lookout for a verification email in your inbox.

You'll start receiving the daily forecast at 8 AM.

×

10-Day Weather Forecast

Almanac

Astronomy

Jan. 20, 2017 Rise Set
Actual Time
Civil Twilight
Nautical Twilight
Astronomical Twilight
Moon
Length of Visible Light
Length of Day
Tomorrow will be .
, % of the Moon is Illuminated

Today's Extremes

State Highs State Lows

Community

WunderPhotos

Upload Photos

1,962,540 photos uploaded!

WunderBlog® & News

Nearby

Air Quality

  Air Quality AQ Index Pollutant
Not available.

Snow Depth

Station Depth Elevation

Earthquake Activity

City Distance Mag. Time & Date
Minimum magnitude displayed is 2.5.

Coastal Water Temperatures

Place Temperature

Stations

Nearby Weather Stations

Station Location Temp. Windchill Dew Point Humidity Wind Precip. Elev Updated Type
                   

Watches & Warnings

There are currently no watches in effect.